sensor_id;sensor_type;location;lat;lon;timestamp;pressure;altitude;pressure_sealevel;temperature;humidity
74680;BME280;63211;48.548;2.704;2024-01-25T00:02:00;102372.19;;;20.13;47.33
74680;BME280;63211;48.548;2.704;2024-01-25T00:04:28;102381.06;;;20.15;47.29
74680;BME280;63211;48.548;2.704;2024-01-25T00:06:54;102372.19;;;20.13;47.21
74680;BME280;63211;48.548;2.704;2024-01-25T00:09:21;102376.44;;;20.16;47.24
74680;BME280;63211;48.548;2.704;2024-01-25T00:11:47;102375.59;;;20.15;47.23
74680;BME280;63211;48.548;2.704;2024-01-25T00:14:14;102372.19;;;20.13;46.89
74680;BME280;63211;48.548;2.704;2024-01-25T00:16:41;102369.66;;;20.12;47.10
74680;BME280;63211;48.548;2.704;2024-01-25T00:19:08;102360.59;;;20.11;46.73
74680;BME280;63211;48.548;2.704;2024-01-25T00:21:41;102363.34;;;20.11;46.81
74680;BME280;63211;48.548;2.704;2024-01-25T00:24:08;102344.72;;;20.00;46.71
74680;BME280;63211;48.548;2.704;2024-01-25T00:26:35;102355.34;;;20.10;46.69
74680;BME280;63211;48.548;2.704;2024-01-25T00:29:01;102353.84;;;20.07;46.68
74680;BME280;63211;48.548;2.704;2024-01-25T00:31:28;102350.25;;;20.07;46.52
74680;BME280;63211;48.548;2.704;2024-01-25T00:44:02;102336.78;;;20.05;47.80
74680;BME280;63211;48.548;2.704;2024-01-25T00:46:29;102341.84;;;20.08;48.21
74680;BME280;63211;48.548;2.704;2024-01-25T00:48:56;102345.91;;;20.12;47.89
74680;BME280;63211;48.548;2.704;2024-01-25T00:51:23;102346.53;;;20.14;47.97
74680;BME280;63211;48.548;2.704;2024-01-25T00:53:50;102348.44;;;20.14;47.77
74680;BME280;63211;48.548;2.704;2024-01-25T00:56:17;102348.63;;;20.12;47.84
74680;BME280;63211;48.548;2.704;2024-01-25T00:58:45;102322.47;;;20.03;47.54
74680;BME280;63211;48.548;2.704;2024-01-25T01:01:12;102336.84;;;20.12;47.39
74680;BME280;63211;48.548;2.704;2024-01-25T01:03:39;102331.56;;;20.10;47.17
74680;BME280;63211;48.548;2.704;2024-01-25T01:06:07;102321.69;;;20.09;47.11
74680;BME280;63211;48.548;2.704;2024-01-25T01:08:34;102317.25;;;20.08;46.93
74680;BME280;63211;48.548;2.704;2024-01-25T01:11:01;102316.41;;;20.08;46.85
74680;BME280;63211;48.548;2.704;2024-01-25T01:13:27;102321.22;;;20.06;46.95
74680;BME280;63211;48.548;2.704;2024-01-25T01:15:54;102319.53;;;20.05;47.06
74680;BME280;63211;48.548;2.704;2024-01-25T01:18:22;102322.25;;;20.05;47.13
74680;BME280;63211;48.548;2.704;2024-01-25T01:20:48;102317.84;;;20.04;46.87
74680;BME280;63211;48.548;2.704;2024-01-25T01:23:15;102315.09;;;20.04;46.95
74680;BME280;63211;48.548;2.704;2024-01-25T01:25:42;102320.75;;;20.02;47.37
74680;BME280;63211;48.548;2.704;2024-01-25T01:28:08;102323.09;;;20.05;47.81
74680;BME280;63211;48.548;2.704;2024-01-25T01:30:35;102315.09;;;20.04;48.37
74680;BME280;63211;48.548;2.704;2024-01-25T01:33:01;102316.22;;;20.09;48.55
74680;BME280;63211;48.548;2.704;2024-01-25T01:35:29;102287.31;;;20.00;48.69
74680;BME280;63211;48.548;2.704;2024-01-25T01:37:56;102312.03;;;20.13;48.66
74680;BME280;63211;48.548;2.704;2024-01-25T01:40:22;102306.97;;;20.10;48.41
74680;BME280;63211;48.548;2.704;2024-01-25T01:42:49;102303.84;;;20.13;48.14
74680;BME280;63211;48.548;2.704;2024-01-25T01:45:15;102292.56;;;20.02;48.25
74680;BME280;63211;48.548;2.704;2024-01-25T01:47:42;102295.38;;;20.08;47.95
74680;BME280;63211;48.548;2.704;2024-01-25T01:50:09;102313.28;;;20.11;47.87
74680;BME280;63211;48.548;2.704;2024-01-25T01:52:37;102306.97;;;20.10;47.40
74680;BME280;63211;48.548;2.704;2024-01-25T01:55:05;102313.47;;;20.09;47.30
74680;BME280;63211;48.548;2.704;2024-01-25T01:57:33;102313.66;;;20.08;47.17
74680;BME280;63211;48.548;2.704;2024-01-25T02:00:03;102316.59;;;20.06;47.15
74680;BME280;63211;48.548;2.704;2024-01-25T02:02:30;102305.66;;;20.06;47.22
74680;BME280;63211;48.548;2.704;2024-01-25T02:04:56;102313.88;;;20.06;47.24
74680;BME280;63211;48.548;2.704;2024-01-25T02:07:23;102312.81;;;20.07;47.29
74680;BME280;63211;48.548;2.704;2024-01-25T02:09:51;102274.59;;;19.86;47.82
74680;BME280;63211;48.548;2.704;2024-01-25T02:12:18;102304.63;;;20.07;48.52
74680;BME280;63211;48.548;2.704;2024-01-25T02:14:45;102292.53;;;19.95;48.87
74680;BME280;63211;48.548;2.704;2024-01-25T02:17:11;102309.31;;;20.13;49.13
74680;BME280;63211;48.548;2.704;2024-01-25T02:19:38;102311.00;;;20.14;49.04
74680;BME280;63211;48.548;2.704;2024-01-25T02:22:05;102316.47;;;20.14;48.93
74680;BME280;63211;48.548;2.704;2024-01-25T02:24:33;102310.81;;;20.16;48.66
74680;BME280;63211;48.548;2.704;2024-01-25T02:26:59;102301.03;;;20.07;48.66
74680;BME280;63211;48.548;2.704;2024-01-25T02:29:27;102305.53;;;20.14;48.46
74680;BME280;63211;48.548;2.704;2024-01-25T02:31:53;102295.75;;;20.05;48.48
74680;BME280;63211;48.548;2.704;2024-01-25T02:34:20;102305.72;;;20.13;48.38
74680;BME280;63211;48.548;2.704;2024-01-25T02:36:46;102287.31;;;20.00;48.00
74680;BME280;63211;48.548;2.704;2024-01-25T02:39:13;102290.75;;;20.09;47.66
74680;BME280;63211;48.548;2.704;2024-01-25T02:41:41;102300.69;;;20.16;49.00
74680;BME280;63211;48.548;2.704;2024-01-25T02:44:08;102300.25;;;20.13;48.69
74680;BME280;63211;48.548;2.704;2024-01-25T02:46:34;102309.09;;;20.15;48.17
74680;BME280;63211;48.548;2.704;2024-01-25T02:49:01;102312.88;;;20.14;48.07
74680;BME280;63211;48.548;2.704;2024-01-25T02:51:27;102318.56;;;20.12;47.96
74680;BME280;63211;48.548;2.704;2024-01-25T02:53:54;102316.84;;;20.11;47.96
74680;BME280;63211;48.548;2.704;2024-01-25T02:56:21;102314.13;;;20.11;48.27
74680;BME280;63211;48.548;2.704;2024-01-25T02:58:48;102307.63;;;20.12;48.34
74680;BME280;63211;48.548;2.704;2024-01-25T03:01:15;102315.44;;;20.15;48.61
74680;BME280;63211;48.548;2.704;2024-01-25T03:03:42;102313.53;;;20.16;48.55
74680;BME280;63211;48.548;2.704;2024-01-25T03:06:08;102314.16;;;20.18;49.17
74680;BME280;63211;48.548;2.704;2024-01-25T03:08:35;102306.16;;;20.16;48.74
74680;BME280;63211;48.548;2.704;2024-01-25T03:11:02;102311.22;;;20.19;48.51
74680;BME280;63211;48.548;2.704;2024-01-25T03:13:29;102311.22;;;20.19;48.27
74680;BME280;63211;48.548;2.704;2024-01-25T03:15:57;102293.94;;;20.12;48.32
74680;BME280;63211;48.548;2.704;2024-01-25T03:18:23;102313.31;;;20.17;48.27
74680;BME280;63211;48.548;2.704;2024-01-25T03:20:50;102307.22;;;20.15;48.05
74680;BME280;63211;48.548;2.704;2024-01-25T03:23:17;102300.38;;;20.05;47.59
74680;BME280;63211;48.548;2.704;2024-01-25T03:25:43;102314.78;;;20.13;47.72
74680;BME280;63211;48.548;2.704;2024-01-25T03:28:10;102312.03;;;20.13;47.50
74680;BME280;63211;48.548;2.704;2024-01-25T03:30:38;102308.66;;;20.11;47.34
74680;BME280;63211;48.548;2.704;2024-01-25T03:33:06;102306.97;;;20.10;47.41
74680;BME280;63211;48.548;2.704;2024-01-25T03:35:33;102317.06;;;20.10;47.25
74680;BME280;63211;48.548;2.704;2024-01-25T03:37:59;102313.47;;;20.09;47.12
74680;BME280;63211;48.548;2.704;2024-01-25T03:40:26;102310.94;;;20.08;47.18
74680;BME280;63211;48.548;2.704;2024-01-25T03:42:53;102298.31;;;20.07;47.89
74680;BME280;63211;48.548;2.704;2024-01-25T03:45:20;102297.66;;;20.05;48.00
74680;BME280;63211;48.548;2.704;2024-01-25T03:47:46;102308.84;;;20.10;48.12
74680;BME280;63211;48.548;2.704;2024-01-25T03:50:14;102306.97;;;20.10;48.34
74680;BME280;63211;48.548;2.704;2024-01-25T03:52:41;102306.56;;;20.13;48.53
74680;BME280;63211;48.548;2.704;2024-01-25T03:55:08;102298.31;;;20.07;48.49
74680;BME280;63211;48.548;2.704;2024-01-25T03:57:34;102298.16;;;20.15;48.37
74680;BME280;63211;48.548;2.704;2024-01-25T04:00:01;102304.50;;;20.15;48.21
74680;BME280;63211;48.548;2.704;2024-01-25T04:02:28;102300.06;;;20.14;47.74
74680;BME280;63211;48.548;2.704;2024-01-25T04:04:55;102300.44;;;20.11;47.66
74680;BME280;63211;48.548;2.704;2024-01-25T04:07:22;102305.06;;;20.11;47.99
74680;BME280;63211;48.548;2.704;2024-01-25T04:09:49;102309.69;;;20.10;47.69
74680;BME280;63211;48.548;2.704;2024-01-25T04:12:16;102308.84;;;20.10;47.40
74680;BME280;63211;48.548;2.704;2024-01-25T04:15:02;102303.50;;;20.02;47.31
74680;BME280;63211;48.548;2.704;2024-01-25T04:17:29;102316.59;;;20.06;47.29
74680;BME280;63211;48.548;2.704;2024-01-25T04:19:55;102322.91;;;20.07;47.32
74680;BME280;63211;48.548;2.704;2024-01-25T04:22:23;102306.25;;;20.02;47.24
74680;BME280;63211;48.548;2.704;2024-01-25T04:24:50;102314.06;;;20.05;46.98
74680;BME280;63211;48.548;2.704;2024-01-25T04:27:16;102316.13;;;20.03;47.02
74680;BME280;63211;48.548;2.704;2024-01-25T04:29:43;102303.31;;;20.03;47.25
74680;BME280;63211;48.548;2.704;2024-01-25T04:32:10;102305.22;;;20.03;47.90
74680;BME280;63211;48.548;2.704;2024-01-25T04:34:36;102301.44;;;20.04;47.93
74680;BME280;63211;48.548;2.704;2024-01-25T04:37:03;102303.97;;;20.05;48.12
74680;BME280;63211;48.548;2.704;2024-01-25T04:39:31;102301.88;;;20.07;48.23
74680;BME280;63211;48.548;2.704;2024-01-25T04:41:58;102311.59;;;20.10;48.24
74680;BME280;63211;48.548;2.704;2024-01-25T04:44:24;102302.34;;;20.11;48.18
74680;BME280;63211;48.548;2.704;2024-01-25T04:46:52;102302.34;;;20.11;48.17
74680;BME280;63211;48.548;2.704;2024-01-25T04:49:19;102296.03;;;20.10;47.88
74680;BME280;63211;48.548;2.704;2024-01-25T04:51:45;102295.19;;;20.10;47.70
74680;BME280;63211;48.548;2.704;2024-01-25T04:54:12;102292.63;;;20.08;47.70
74680;BME280;63211;48.548;2.704;2024-01-25T04:56:42;102286.06;;;20.03;47.60
74680;BME280;63211;48.548;2.704;2024-01-25T04:59:08;102291.16;;;20.06;47.32
74680;BME280;63211;48.548;2.704;2024-01-25T05:01:35;102281.25;;;20.05;47.08
74680;BME280;63211;48.548;2.704;2024-01-25T05:04:01;102274.09;;;20.04;47.15
74680;BME280;63211;48.548;2.704;2024-01-25T05:06:29;102265.03;;;20.03;47.16
74680;BME280;63211;48.548;2.704;2024-01-25T05:08:56;102249.22;;;19.99;47.14
74680;BME280;63211;48.548;2.704;2024-01-25T05:11:22;102251.56;;;20.02;47.02
74680;BME280;63211;48.548;2.704;2024-01-25T05:13:50;102257.22;;;20.00;46.69
74680;BME280;63211;48.548;2.704;2024-01-25T05:16:17;102254.69;;;19.99;46.88
74680;BME280;63211;48.548;2.704;2024-01-25T05:18:43;102253.84;;;19.98;47.27
74680;BME280;63211;48.548;2.704;2024-01-25T05:21:10;102250.06;;;19.99;47.71
74680;BME280;63211;48.548;2.704;2024-01-25T05:23:36;102246.94;;;20.02;47.91
74680;BME280;63211;48.548;2.704;2024-01-25T05:26:03;102250.53;;;20.03;48.09
74680;BME280;63211;48.548;2.704;2024-01-25T05:28:30;102239.34;;;19.98;48.04
74680;BME280;63211;48.548;2.704;2024-01-25T05:30:58;102257.28;;;20.07;47.96
74680;BME280;63211;48.548;2.704;2024-01-25T05:33:25;102239.78;;;20.01;47.61
74680;BME280;63211;48.548;2.704;2024-01-25T05:35:51;102256.25;;;20.08;47.85
74680;BME280;63211;48.548;2.704;2024-01-25T05:38:18;102263.59;;;20.07;47.78
74680;BME280;63211;48.548;2.704;2024-01-25T05:40:45;102265.50;;;20.07;47.75
74680;BME280;63211;48.548;2.704;2024-01-25T05:43:11;102265.69;;;20.05;47.44
74680;BME280;63211;48.548;2.704;2024-01-25T05:45:38;102259.56;;;20.03;47.44
74680;BME280;63211;48.548;2.704;2024-01-25T05:48:07;102265.03;;;20.03;47.02
74680;BME280;63211;48.548;2.704;2024-01-25T05:50:33;102239.34;;;19.98;47.19
74680;BME280;63211;48.548;2.704;2024-01-25T05:53:00;102248.19;;;20.00;47.17
74680;BME280;63211;48.548;2.704;2024-01-25T05:55:26;102259.97;;;20.00;47.06
74680;BME280;63211;48.548;2.704;2024-01-25T05:57:53;102259.31;;;19.98;46.93
74680;BME280;63211;48.548;2.704;2024-01-25T06:00:20;102262.06;;;19.98;46.91
74680;BME280;63211;48.548;2.704;2024-01-25T06:02:46;102272.34;;;19.96;46.89
74680;BME280;63211;48.548;2.704;2024-01-25T06:05:14;102271.72;;;19.94;47.22
74680;BME280;63211;48.548;2.704;2024-01-25T06:07:41;102229.06;;;19.72;47.97
74680;BME280;63211;48.548;2.704;2024-01-25T06:10:08;102270.19;;;20.13;47.65
74680;BME280;63211;48.548;2.704;2024-01-25T06:12:35;102270.75;;;20.08;47.10
74680;BME280;63211;48.548;2.704;2024-01-25T06:15:01;102279.16;;;20.07;47.13
74680;BME280;63211;48.548;2.704;2024-01-25T06:17:28;102272.66;;;20.08;47.15
74680;BME280;63211;48.548;2.704;2024-01-25T06:19:54;102280.47;;;20.11;46.92
74680;BME280;63211;48.548;2.704;2024-01-25T06:22:22;102281.31;;;20.11;46.99
74680;BME280;63211;48.548;2.704;2024-01-25T06:24:49;102287.81;;;20.10;46.70
74680;BME280;63211;48.548;2.704;2024-01-25T06:27:15;102292.44;;;20.10;46.94
74680;BME280;63211;48.548;2.704;2024-01-25T06:29:42;102287.38;;;20.07;46.67
74680;BME280;63211;48.548;2.704;2024-01-25T06:32:10;102274.09;;;20.04;46.57
74680;BME280;63211;48.548;2.704;2024-01-25T06:34:36;102278.50;;;20.05;46.67
74680;BME280;63211;48.548;2.704;2024-01-25T06:37:03;102281.25;;;20.05;46.69
74680;BME280;63211;48.548;2.704;2024-01-25T06:39:31;102279.38;;;20.05;47.09
74680;BME280;63211;48.548;2.704;2024-01-25T06:41:59;102217.88;;;19.67;47.08
74680;BME280;63211;48.548;2.704;2024-01-25T06:44:28;102281.25;;;20.05;46.83
74680;BME280;63211;48.548;2.704;2024-01-25T06:46:54;102268.81;;;20.02;46.70
74680;BME280;63211;48.548;2.704;2024-01-25T06:49:21;102270.72;;;20.02;46.49
74680;BME280;63211;48.548;2.704;2024-01-25T06:51:48;102272.41;;;20.03;47.21
74680;BME280;63211;48.548;2.704;2024-01-25T06:54:15;102273.56;;;20.15;47.81
74680;BME280;63211;48.548;2.704;2024-01-25T06:56:43;102267.06;;;20.22;47.10
74680;BME280;63211;48.548;2.704;2024-01-25T06:59:09;102249.75;;;20.09;47.39
74680;BME280;63211;48.548;2.704;2024-01-25T07:01:36;102260.72;;;20.15;47.63
74680;BME280;63211;48.548;2.704;2024-01-25T07:04:03;102262.19;;;20.18;49.11
74680;BME280;63211;48.548;2.704;2024-01-25T07:06:30;102261.34;;;20.17;49.75
74680;BME280;63211;48.548;2.704;2024-01-25T07:08:57;102263.28;;;20.23;50.32
74680;BME280;63211;48.548;2.704;2024-01-25T07:11:23;102255.78;;;20.32;51.14
74680;BME280;63211;48.548;2.704;2024-01-25T07:13:51;102259.63;;;20.38;51.98
74680;BME280;63211;48.548;2.704;2024-01-25T07:16:18;102268.03;;;20.36;51.56
74680;BME280;63211;48.548;2.704;2024-01-25T07:18:45;102259.31;;;20.26;50.10
74680;BME280;63211;48.548;2.704;2024-01-25T07:21:11;102266.28;;;20.29;50.16
74680;BME280;63211;48.548;2.704;2024-01-25T07:23:38;102260.38;;;20.25;50.07
74680;BME280;63211;48.548;2.704;2024-01-25T07:26:05;102260.09;;;20.20;50.03
74680;BME280;63211;48.548;2.704;2024-01-25T07:28:31;102260.31;;;20.18;49.61
74680;BME280;63211;48.548;2.704;2024-01-25T07:30:59;102264.09;;;20.17;49.55
74680;BME280;63211;48.548;2.704;2024-01-25T07:33:26;102269.97;;;20.14;49.66
74680;BME280;63211;48.548;2.704;2024-01-25T07:35:53;102261.72;;;20.08;50.26
74680;BME280;63211;48.548;2.704;2024-01-25T07:38:23;102263.59;;;20.07;50.07
74680;BME280;63211;48.548;2.704;2024-01-25T07:40:50;102266.78;;;20.11;49.74
74680;BME280;63211;48.548;2.704;2024-01-25T07:43:17;102260.28;;;20.12;49.84
74680;BME280;63211;48.548;2.704;2024-01-25T07:45:44;102254.63;;;20.13;49.70
74680;BME280;63211;48.548;2.704;2024-01-25T07:48:12;102259.25;;;20.13;49.86
74680;BME280;63211;48.548;2.704;2024-01-25T07:50:38;102245.97;;;20.10;49.88
74680;BME280;63211;48.548;2.704;2024-01-25T07:53:05;102256.69;;;20.11;49.84
74680;BME280;63211;48.548;2.704;2024-01-25T07:55:31;102256.06;;;20.09;49.95
74680;BME280;63211;48.548;2.704;2024-01-25T07:57:58;102257.28;;;20.07;49.64
74680;BME280;63211;48.548;2.704;2024-01-25T08:00:24;102255.41;;;20.07;49.86
74680;BME280;63211;48.548;2.704;2024-01-25T08:02:51;102127.81;;;19.31;50.04
74680;BME280;63211;48.548;2.704;2024-01-25T08:05:19;102253.25;;;20.03;49.70
74680;BME280;63211;48.548;2.704;2024-01-25T08:07:46;102250.53;;;20.03;50.03
74680;BME280;63211;48.548;2.704;2024-01-25T08:10:14;102249.22;;;19.99;49.79
74680;BME280;63211;48.548;2.704;2024-01-25T08:12:40;102245.84;;;19.97;49.91
74680;BME280;63211;48.548;2.704;2024-01-25T08:15:09;102250.47;;;19.96;49.92
74680;BME280;63211;48.548;2.704;2024-01-25T08:17:36;102255.53;;;19.99;49.97
74680;BME280;63211;48.548;2.704;2024-01-25T08:20:04;102249.63;;;19.96;49.87
74680;BME280;63211;48.548;2.704;2024-01-25T08:22:32;102246.88;;;19.96;49.93
74680;BME280;63211;48.548;2.704;2024-01-25T08:24:59;102246.69;;;19.97;49.89
74680;BME280;63211;48.548;2.704;2024-01-25T08:27:26;102250.28;;;19.98;49.95
74680;BME280;63211;48.548;2.704;2024-01-25T08:29:52;102241.03;;;19.99;49.73
74680;BME280;63211;48.548;2.704;2024-01-25T08:32:19;102253.66;;;20.00;49.83
74680;BME280;63211;48.548;2.704;2024-01-25T08:34:45;102261.84;;;20.00;49.75
74680;BME280;63211;48.548;2.704;2024-01-25T08:37:12;102255.53;;;19.99;49.95
74680;BME280;63211;48.548;2.704;2024-01-25T08:39:40;102259.50;;;19.97;49.63
74680;BME280;63211;48.548;2.704;2024-01-25T08:42:08;102211.63;;;19.73;49.71
74680;BME280;63211;48.548;2.704;2024-01-25T08:44:37;102264.38;;;19.95;50.02
74680;BME280;63211;48.548;2.704;2024-01-25T08:47:04;102266.25;;;19.94;49.91
74680;BME280;63211;48.548;2.704;2024-01-25T08:49:31;102267.09;;;19.95;49.90
74680;BME280;63211;48.548;2.704;2024-01-25T08:51:58;102266.25;;;19.94;49.99
74680;BME280;63211;48.548;2.704;2024-01-25T08:54:25;102262.22;;;19.90;49.79
74680;BME280;63211;48.548;2.704;2024-01-25T08:56:53;102268.53;;;19.90;49.78
74680;BME280;63211;48.548;2.704;2024-01-25T08:59:19;102259.47;;;19.90;49.70
74680;BME280;63211;48.548;2.704;2024-01-25T09:01:46;102264.94;;;19.90;49.71
74680;BME280;63211;48.548;2.704;2024-01-25T09:04:12;102263.25;;;19.89;49.68
74680;BME280;63211;48.548;2.704;2024-01-25T09:06:39;102253.69;;;19.78;49.88
74680;BME280;63211;48.548;2.704;2024-01-25T09:09:06;102268.72;;;19.89;49.84
74680;BME280;63211;48.548;2.704;2024-01-25T09:11:33;102273.34;;;19.88;49.78
74680;BME280;63211;48.548;2.704;2024-01-25T09:14:01;102271.00;;;19.85;49.71
74680;BME280;63211;48.548;2.704;2024-01-25T09:16:28;102284.75;;;19.92;49.61
74680;BME280;63211;48.548;2.704;2024-01-25T09:18:54;102295.66;;;19.92;49.87
74680;BME280;63211;48.548;2.704;2024-01-25T09:21:21;102295.47;;;19.94;49.63
74680;BME280;63211;48.548;2.704;2024-01-25T09:23:48;102285.78;;;19.91;49.77
74680;BME280;63211;48.548;2.704;2024-01-25T09:26:15;102286.44;;;19.93;49.58
74680;BME280;63211;48.548;2.704;2024-01-25T09:28:41;102292.94;;;19.92;49.81
74680;BME280;63211;48.548;2.704;2024-01-25T09:31:09;102294.81;;;19.92;49.54
74680;BME280;63211;48.548;2.704;2024-01-25T09:33:36;102295.00;;;19.90;49.55
74680;BME280;63211;48.548;2.704;2024-01-25T09:36:02;102294.16;;;19.89;49.53
74680;BME280;63211;48.548;2.704;2024-01-25T09:38:29;102280.03;;;19.86;49.68
74680;BME280;63211;48.548;2.704;2024-01-25T09:40:56;102285.06;;;19.82;49.58
74680;BME280;63211;48.548;2.704;2024-01-25T09:43:22;102284.47;;;19.87;49.35
74680;BME280;63211;48.548;2.704;2024-01-25T09:45:53;102286.34;;;19.86;49.49
74680;BME280;63211;48.548;2.704;2024-01-25T09:48:21;102276.84;;;19.82;49.58
74680;BME280;63211;48.548;2.704;2024-01-25T09:50:48;102288.44;;;19.84;49.63
74680;BME280;63211;48.548;2.704;2024-01-25T09:53:21;102281.28;;;19.83;49.51
74680;BME280;63211;48.548;2.704;2024-01-25T09:55:54;102280.25;;;19.84;49.48
74680;BME280;63211;48.548;2.704;2024-01-25T09:58:25;102278.34;;;19.85;49.21
74680;BME280;63211;48.548;2.704;2024-01-25T10:00:55;102277.50;;;19.84;49.52
74680;BME280;63211;48.548;2.704;2024-01-25T10:03:23;102279.66;;;19.89;49.47
74680;BME280;63211;48.548;2.704;2024-01-25T10:05:50;102280.69;;;19.88;49.51
74680;BME280;63211;48.548;2.704;2024-01-25T10:08:16;102277.78;;;19.89;49.50
74680;BME280;63211;48.548;2.704;2024-01-25T10:10:44;102277.56;;;19.91;49.44
74680;BME280;63211;48.548;2.704;2024-01-25T10:13:12;102276.72;;;19.90;49.52
74680;BME280;63211;48.548;2.704;2024-01-25T10:15:39;102284.75;;;19.92;49.57
74680;BME280;63211;48.548;2.704;2024-01-25T10:18:07;102280.31;;;19.91;49.78
74680;BME280;63211;48.548;2.704;2024-01-25T10:20:39;102281.09;;;19.85;49.32
74680;BME280;63211;48.548;2.704;2024-01-25T10:23:06;102281.53;;;19.88;49.56
74680;BME280;63211;48.548;2.704;2024-01-25T10:25:34;102287.47;;;19.92;49.38
74680;BME280;63211;48.548;2.704;2024-01-25T10:28:01;102288.97;;;19.95;48.98
74680;BME280;63211;48.548;2.704;2024-01-25T10:30:31;102295.91;;;19.97;48.91
74680;BME280;63211;48.548;2.704;2024-01-25T10:32:58;102299.28;;;19.99;48.93
74680;BME280;63211;48.548;2.704;2024-01-25T10:35:26;102292.13;;;19.98;48.77
74680;BME280;63211;48.548;2.704;2024-01-25T10:37:54;102297.00;;;20.03;48.60
74680;BME280;63211;48.548;2.704;2024-01-25T10:40:21;102305.00;;;20.04;48.73
74680;BME280;63211;48.548;2.704;2024-01-25T10:42:48;102298.88;;;20.02;48.81
74680;BME280;63211;48.548;2.704;2024-01-25T10:45:15;102296.63;;;20.06;48.71
74680;BME280;63211;48.548;2.704;2024-01-25T10:47:42;102290.09;;;20.07;48.91
74680;BME280;63211;48.548;2.704;2024-01-25T10:50:12;102295.84;;;20.12;48.88
74680;BME280;63211;48.548;2.704;2024-01-25T10:52:40;102294.41;;;20.16;48.66
74680;BME280;63211;48.548;2.704;2024-01-25T10:55:09;102292.28;;;20.18;48.96
74680;BME280;63211;48.548;2.704;2024-01-25T10:57:39;102286.59;;;20.19;48.80
74680;BME280;63211;48.548;2.704;2024-01-25T11:00:07;102283.88;;;20.19;48.55
74680;BME280;63211;48.548;2.704;2024-01-25T11:02:36;102272.75;;;20.21;48.65
74680;BME280;63211;48.548;2.704;2024-01-25T11:05:06;102269.16;;;20.20;48.56
74680;BME280;63211;48.548;2.704;2024-01-25T11:07:41;102263.69;;;20.20;48.44
74680;BME280;63211;48.548;2.704;2024-01-25T11:10:12;102263.69;;;20.20;48.30
74680;BME280;63211;48.548;2.704;2024-01-25T11:12:48;102255.69;;;20.19;48.29
74680;BME280;63211;48.548;2.704;2024-01-25T11:15:18;102250.22;;;20.19;48.34
74680;BME280;63211;48.548;2.704;2024-01-25T11:17:50;102251.91;;;20.20;48.19
74680;BME280;63211;48.548;2.704;2024-01-25T11:20:20;102226.63;;;20.11;48.35
74680;BME280;63211;48.548;2.704;2024-01-25T11:22:46;102189.19;;;19.84;48.40
74680;BME280;63211;48.548;2.704;2024-01-25T11:25:20;102106.25;;;19.42;48.36
74680;BME280;63211;48.548;2.704;2024-01-25T11:27:48;102235.28;;;20.21;48.32
74680;BME280;63211;48.548;2.704;2024-01-25T11:30:17;102226.91;;;20.23;48.27
74680;BME280;63211;48.548;2.704;2024-01-25T11:32:44;102221.81;;;20.20;48.64
74680;BME280;63211;48.548;2.704;2024-01-25T11:35:12;102213.16;;;20.16;48.75
74680;BME280;63211;48.548;2.704;2024-01-25T11:37:42;102226.22;;;20.14;48.97
74680;BME280;63211;48.548;2.704;2024-01-25T11:40:09;102219.25;;;20.12;48.76
74680;BME280;63211;48.548;2.704;2024-01-25T11:42:38;102214.84;;;20.11;48.93
74680;BME280;63211;48.548;2.704;2024-01-25T11:45:05;102211.25;;;20.10;49.10
74680;BME280;63211;48.548;2.704;2024-01-25T11:47:34;102200.91;;;20.06;49.11
74680;BME280;63211;48.548;2.704;2024-01-25T11:50:01;102206.19;;;20.07;48.90
74680;BME280;63211;48.548;2.704;2024-01-25T11:52:28;102202.81;;;20.05;49.24
74680;BME280;63211;48.548;2.704;2024-01-25T11:54:57;102200.28;;;20.04;49.06
74680;BME280;63211;48.548;2.704;2024-01-25T11:57:23;102196.03;;;20.01;49.21
74680;BME280;63211;48.548;2.704;2024-01-25T11:59:52;102188.44;;;19.97;49.22
74680;BME280;63211;48.548;2.704;2024-01-25T12:02:19;102189.34;;;20.04;49.24
74680;BME280;63211;48.548;2.704;2024-01-25T12:04:46;102172.09;;;20.03;49.13
74680;BME280;63211;48.548;2.704;2024-01-25T12:07:14;102162.19;;;20.02;49.34
74680;BME280;63211;48.548;2.704;2024-01-25T12:09:40;102150.41;;;19.95;49.49
74680;BME280;63211;48.548;2.704;2024-01-25T12:12:09;102170.16;;;19.97;49.36
74680;BME280;63211;48.548;2.704;2024-01-25T12:14:35;102169.75;;;20.00;49.27
74680;BME280;63211;48.548;2.704;2024-01-25T12:17:04;102163.22;;;20.01;49.41
74680;BME280;63211;48.548;2.704;2024-01-25T12:19:31;102157.56;;;20.03;49.22
74680;BME280;63211;48.548;2.704;2024-01-25T12:21:58;102153.34;;;20.00;49.33
74680;BME280;63211;48.548;2.704;2024-01-25T12:24:24;102145.34;;;19.99;50.21
74680;BME280;63211;48.548;2.704;2024-01-25T12:26:51;102123.88;;;19.96;49.88
74680;BME280;63211;48.548;2.704;2024-01-25T12:29:17;102126.66;;;20.02;49.15
74680;BME280;63211;48.548;2.704;2024-01-25T12:31:44;102126.69;;;20.09;49.33
74680;BME280;63211;48.548;2.704;2024-01-25T12:34:15;102131.97;;;20.10;49.58
74680;BME280;63211;48.548;2.704;2024-01-25T12:36:42;102120.59;;;20.07;49.56
74680;BME280;63211;48.548;2.704;2024-01-25T12:39:09;102126.50;;;20.10;49.17
74680;BME280;63211;48.548;2.704;2024-01-25T12:41:36;102126.91;;;20.07;49.29
74680;BME280;63211;48.548;2.704;2024-01-25T12:44:03;102121.44;;;20.07;49.07
74680;BME280;63211;48.548;2.704;2024-01-25T12:46:30;102119.94;;;20.05;49.18
74680;BME280;63211;48.548;2.704;2024-01-25T12:48:56;102111.53;;;20.06;49.22
74680;BME280;63211;48.548;2.704;2024-01-25T12:51:25;102105.22;;;20.06;49.01
74680;BME280;63211;48.548;2.704;2024-01-25T12:53:51;102091.56;;;20.06;49.06
74680;BME280;63211;48.548;2.704;2024-01-25T12:56:18;102097.03;;;20.06;49.11
74680;BME280;63211;48.548;2.704;2024-01-25T12:58:44;102081.03;;;20.03;48.85
74680;BME280;63211;48.548;2.704;2024-01-25T13:01:11;102096.19;;;20.05;48.84